createdAt,value
2017-10-26T00:00:39.675Z,1.80
2017-10-26T00:03:06.220Z,2.00
2017-10-26T00:05:33.211Z,2.57
2017-10-26T00:07:59.757Z,3.03
2017-10-26T00:10:26.678Z,2.73
2017-10-26T00:12:53.276Z,2.40
2017-10-26T00:15:19.819Z,2.40
2017-10-26T00:17:46.370Z,2.12
2017-10-26T00:20:12.971Z,3.90
2017-10-26T00:22:39.944Z,2.30
2017-10-26T00:25:06.549Z,3.30
2017-10-26T00:27:33.161Z,1.87
2017-10-26T00:29:59.706Z,8.57
2017-10-26T00:32:26.267Z,2.67
2017-10-26T00:34:52.943Z,3.80
2017-10-26T00:37:19.506Z,5.43
2017-10-26T00:39:46.059Z,2.60
2017-10-26T00:42:12.667Z,4.90
2017-10-26T00:44:39.595Z,3.20
2017-10-26T00:47:06.534Z,2.25
2017-10-26T00:49:33.171Z,16.15
2017-10-26T00:51:59.752Z,2.20
2017-10-26T00:54:26.700Z,2.80
2017-10-26T00:56:53.343Z,2.30
2017-10-26T00:59:19.937Z,2.85
2017-10-26T01:01:46.938Z,2.40
2017-10-26T01:04:13.594Z,7.40
2017-10-26T01:06:40.523Z,2.65
2017-10-26T01:09:07.467Z,4.85
2017-10-26T01:11:34.099Z,3.60
2017-10-26T01:14:00.698Z,2.75
2017-10-26T01:16:27.283Z,8.15
2017-10-26T01:18:53.920Z,2.60
2017-10-26T01:21:20.923Z,2.70
2017-10-26T01:23:47.543Z,4.12
2017-10-26T01:26:14.227Z,2.75
2017-10-26T01:28:40.847Z,2.87
2017-10-26T01:31:07.423Z,3.42
2017-10-26T01:33:34.086Z,3.55
2017-10-26T01:36:00.735Z,4.90
2017-10-26T01:38:27.366Z,3.95
2017-10-26T01:40:54.047Z,3.40
2017-10-26T01:43:20.679Z,2.80
2017-10-26T01:45:47.299Z,4.12
2017-10-26T01:48:14.032Z,3.55
2017-10-26T01:50:40.718Z,5.35
2017-10-26T01:53:07.715Z,6.87
2017-10-26T01:55:34.619Z,5.23
2017-10-26T01:58:01.294Z,2.75
2017-10-26T02:00:28.255Z,4.57
2017-10-26T02:02:54.879Z,3.30
2017-10-26T02:05:21.467Z,6.12
2017-10-26T02:07:48.445Z,8.90
2017-10-26T02:10:15.130Z,7.20
2017-10-26T02:12:42.191Z,6.65
2017-10-26T02:15:08.818Z,6.90
2017-10-26T02:17:35.507Z,18.47
2017-10-26T02:20:02.167Z,8.47
2017-10-26T02:22:28.791Z,9.32
2017-10-26T02:24:55.480Z,6.50
2017-10-26T02:27:22.062Z,7.07
2017-10-26T02:30:01.136Z,7.03
2017-10-26T02:32:27.743Z,25.73
2017-10-26T02:34:54.335Z,15.60
2017-10-26T02:37:21.356Z,21.00
2017-10-26T02:39:47.951Z,15.23
2017-10-26T02:42:14.534Z,17.47
2017-10-26T02:44:41.152Z,19.10
2017-10-26T02:47:07.707Z,20.60
2017-10-26T02:49:34.276Z,22.33
2017-10-26T02:52:01.291Z,28.10
2017-10-26T02:54:27.854Z,25.83
2017-10-26T02:56:54.415Z,26.77
2017-10-26T02:59:21.054Z,26.20
2017-10-26T03:01:47.679Z,27.53
2017-10-26T03:04:14.667Z,35.53
2017-10-26T03:06:41.295Z,27.47
2017-10-26T03:09:07.858Z,29.70
2017-10-26T03:11:34.807Z,30.17
2017-10-26T03:14:01.540Z,25.83
2017-10-26T03:16:28.095Z,29.23
2017-10-26T03:18:54.680Z,30.17
2017-10-26T03:21:21.307Z,30.73
2017-10-26T03:23:47.867Z,23.50
2017-10-26T03:26:14.423Z,30.97
2017-10-26T03:28:41.031Z,25.50
2017-10-26T03:31:07.952Z,25.83
2017-10-26T03:33:34.877Z,28.73
2017-10-26T03:36:01.647Z,22.63
2017-10-26T03:38:28.231Z,41.63
2017-10-26T03:40:55.150Z,25.57
2017-10-26T03:43:21.770Z,28.33
2017-10-26T03:45:48.319Z,25.70
2017-10-26T03:48:14.862Z,32.67
2017-10-26T03:50:41.471Z,33.17
2017-10-26T03:53:08.026Z,31.40
2017-10-26T03:55:34.578Z,32.70
2017-10-26T03:58:01.548Z,43.13
2017-10-26T04:00:28.094Z,46.80
2017-10-26T04:02:54.648Z,52.67
2017-10-26T04:05:21.406Z,49.43
2017-10-26T04:07:47.947Z,39.73
2017-10-26T04:10:14.491Z,47.13
2017-10-26T04:12:41.103Z,53.90
2017-10-26T04:15:07.646Z,41.50
2017-10-26T04:17:34.190Z,64.70
2017-10-26T04:20:00.852Z,46.33
2017-10-26T04:22:27.407Z,80.33
2017-10-26T04:24:54.354Z,62.93
2017-10-26T04:27:21.027Z,36.77
2017-10-26T04:29:47.586Z,57.07
2017-10-26T04:32:14.572Z,59.37
2017-10-26T04:34:41.309Z,53.13
2017-10-26T04:37:07.906Z,63.23
2017-10-26T04:39:34.511Z,78.00
2017-10-26T04:42:01.151Z,83.77
2017-10-26T04:44:27.708Z,44.77
2017-10-26T04:46:54.267Z,60.07
2017-10-26T04:49:20.895Z,82.57
2017-10-26T04:51:47.458Z,54.45
2017-10-26T04:54:14.011Z,64.30
2017-10-26T04:56:40.634Z,76.78
2017-10-26T04:59:07.203Z,75.87
2017-10-26T05:01:33.775Z,102.57
2017-10-26T05:04:00.388Z,140.68
2017-10-26T05:06:26.943Z,153.05
2017-10-26T05:08:53.587Z,259.92
2017-10-26T05:11:20.206Z,112.65
2017-10-26T05:13:46.764Z,58.42
2017-10-26T05:16:13.690Z,119.57
2017-10-26T05:18:40.879Z,114.22
2017-10-26T05:21:07.448Z,131.20
2017-10-26T05:23:34.366Z,135.85
2017-10-26T05:26:01.361Z,79.78
2017-10-26T05:28:27.915Z,88.50
2017-10-26T05:30:54.840Z,56.97
2017-10-26T05:33:21.520Z,83.68
2017-10-26T05:35:48.169Z,88.50
2017-10-26T05:38:14.819Z,59.22
2017-10-26T05:40:41.935Z,82.65
2017-10-26T05:43:08.562Z,113.78
2017-10-26T05:45:35.554Z,138.07
2017-10-26T05:48:02.191Z,81.25
2017-10-26T05:50:28.796Z,127.28
2017-10-26T05:52:55.467Z,81.37
2017-10-26T05:55:22.189Z,99.40
2017-10-26T05:57:49.155Z,102.22
2017-10-26T06:00:15.748Z,61.13
2017-10-26T06:02:42.362Z,74.80
2017-10-26T06:05:08.952Z,65.25
2017-10-26T06:07:35.516Z,49.85
2017-10-26T06:10:02.148Z,94.82
2017-10-26T06:12:28.715Z,40.92
2017-10-26T06:14:55.354Z,53.60
2017-10-26T06:17:22.372Z,94.18
2017-10-26T06:19:48.935Z,124.12
2017-10-26T06:22:15.558Z,38.58
2017-10-26T06:24:42.183Z,87.53
2017-10-26T06:27:08.743Z,90.90
2017-10-26T06:29:35.924Z,87.70
2017-10-26T06:32:02.948Z,130.35
2017-10-26T06:34:29.543Z,137.05
2017-10-26T06:36:56.103Z,158.12
2017-10-26T06:39:22.816Z,168.93
2017-10-26T06:41:49.411Z,105.15
2017-10-26T06:44:16.903Z,183.32
2017-10-26T06:46:43.535Z,104.47
2017-10-26T06:49:10.155Z,91.55
2017-10-26T06:51:36.722Z,121.05
2017-10-26T06:54:03.882Z,112.90
2017-10-26T06:56:30.483Z,72.47
2017-10-26T06:58:57.424Z,72.37
2017-10-26T07:01:24.307Z,113.68
2017-10-26T07:03:50.874Z,90.15
2017-10-26T07:06:17.430Z,84.30
2017-10-26T07:08:44.071Z,86.35
2017-10-26T07:11:10.643Z,68.07
2017-10-26T07:13:37.215Z,77.87
2017-10-26T07:16:03.838Z,68.72
2017-10-26T07:18:30.435Z,55.70
2017-10-26T07:20:56.995Z,61.85
2017-10-26T07:23:24.106Z,57.47
2017-10-26T07:25:50.684Z,46.80
2017-10-26T07:28:17.245Z,55.43
2017-10-26T07:30:43.911Z,52.60
2017-10-26T07:33:10.470Z,50.93
2017-10-26T07:35:37.031Z,48.20
2017-10-26T07:38:04.053Z,45.63
2017-10-26T07:40:30.687Z,54.43
2017-10-26T07:42:57.698Z,47.20
2017-10-26T07:45:24.347Z,43.33
2017-10-26T07:47:51.390Z,35.13
2017-10-26T07:50:17.972Z,37.40
2017-10-26T07:52:44.671Z,30.50
2017-10-26T07:55:11.247Z,29.73
2017-10-26T07:57:37.863Z,27.13
2017-10-26T08:00:04.539Z,33.93
2017-10-26T08:02:31.119Z,27.60
2017-10-26T08:04:57.711Z,28.17
2017-10-26T08:07:24.758Z,23.33
2017-10-26T08:09:51.332Z,22.33
2017-10-26T08:12:17.966Z,24.87
2017-10-26T08:14:44.687Z,23.17
2017-10-26T08:17:11.291Z,23.80
2017-10-26T08:19:37.851Z,22.27
2017-10-26T08:22:04.911Z,26.23
2017-10-26T08:24:31.510Z,21.30
2017-10-26T08:26:58.441Z,22.60
2017-10-26T08:29:25.443Z,22.03
2017-10-26T08:31:52.016Z,23.23
2017-10-26T08:34:18.602Z,26.77
2017-10-26T08:36:45.595Z,26.20
2017-10-26T08:39:12.182Z,22.37
2017-10-26T08:41:38.783Z,30.20
2017-10-26T08:44:05.539Z,29.30
2017-10-26T08:46:32.096Z,21.80
2017-10-26T08:48:58.678Z,21.80
2017-10-26T08:51:25.511Z,22.63
2017-10-26T08:53:52.128Z,24.73
2017-10-26T08:56:18.731Z,24.07
2017-10-26T08:58:45.527Z,20.40
2017-10-26T09:01:12.548Z,20.60
2017-10-26T09:03:39.163Z,18.43
2017-10-26T09:06:05.883Z,15.17
2017-10-26T09:08:32.494Z,15.47
2017-10-26T09:10:59.128Z,11.77
2017-10-26T09:13:25.863Z,11.90
2017-10-26T09:15:52.943Z,9.80
2017-10-26T09:18:19.567Z,11.03
2017-10-26T09:20:46.290Z,9.83
2017-10-26T09:23:12.907Z,7.13
2017-10-26T09:25:39.555Z,9.90
2017-10-26T09:28:06.238Z,4.93
2017-10-26T09:30:32.863Z,4.90
2017-10-26T09:36:04.987Z,2.87
2017-10-26T09:38:32.259Z,4.33
2017-10-26T09:40:58.886Z,15.97
2017-10-26T09:43:25.555Z,3.07
2017-10-26T09:45:52.620Z,10.30
2017-10-26T09:48:19.314Z,5.40
2017-10-26T09:50:46.316Z,19.40
2017-10-26T09:53:13.394Z,3.43
2017-10-26T09:55:40.035Z,5.43
2017-10-26T09:58:06.671Z,4.43
2017-10-26T10:00:33.426Z,5.13
2017-10-26T10:03:00.452Z,14.33
2017-10-26T10:05:27.091Z,9.17
2017-10-26T10:07:53.763Z,2.57
2017-10-26T10:10:20.406Z,10.20
2017-10-26T10:12:47.043Z,2.27
2017-10-26T10:15:13.840Z,2.80
2017-10-26T10:17:40.955Z,6.20
2017-10-26T10:20:07.567Z,6.23
2017-10-26T10:22:34.338Z,2.20
2017-10-26T10:25:00.977Z,2.90
2017-10-26T10:27:27.980Z,12.10
2017-10-26T10:29:54.685Z,2.00
2017-10-26T10:32:21.386Z,2.77
2017-10-26T10:34:48.028Z,3.33
2017-10-26T10:37:14.727Z,1.97
2017-10-26T10:39:41.358Z,6.00
2017-10-26T10:42:08.004Z,2.90
2017-10-26T10:44:35.039Z,6.93
2017-10-26T10:47:01.772Z,3.23
2017-10-26T10:49:28.420Z,1.87
2017-10-26T10:51:55.595Z,22.47
2017-10-26T10:54:22.228Z,2.40
2017-10-26T10:56:48.854Z,2.57
2017-10-26T10:59:21.568Z,7.83
2017-10-26T11:01:48.635Z,6.17
2017-10-26T11:04:15.279Z,8.03
2017-10-26T11:06:41.960Z,3.73
2017-10-26T11:09:08.603Z,7.23
2017-10-26T11:11:35.466Z,2.43
2017-10-26T11:14:02.239Z,5.90
2017-10-26T11:16:28.854Z,11.20
2017-10-26T11:18:55.482Z,4.03
2017-10-26T11:21:22.184Z,3.70
2017-10-26T11:23:49.176Z,3.87
2017-10-26T11:26:15.814Z,8.20
2017-10-26T11:28:42.550Z,4.07
2017-10-26T11:31:09.231Z,3.60
2017-10-26T11:33:36.226Z,5.20
2017-10-26T11:36:02.923Z,10.23
2017-10-26T11:38:29.560Z,5.17
2017-10-26T11:40:56.179Z,10.30
2017-10-26T11:43:23.224Z,3.90
2017-10-26T11:45:49.907Z,5.73
2017-10-26T11:48:16.578Z,5.90
2017-10-26T11:50:43.279Z,4.97
2017-10-26T11:53:10.283Z,6.50
2017-10-26T11:55:36.923Z,4.07
2017-10-26T11:58:04.020Z,2.60
2017-10-26T12:00:30.699Z,8.17
2017-10-26T12:02:57.378Z,5.63
2017-10-26T12:05:24.042Z,2.50
2017-10-26T12:07:50.684Z,4.67
2017-10-26T12:10:17.311Z,3.20
2017-10-26T12:12:44.003Z,4.30
2017-10-26T12:15:11.011Z,5.63
2017-10-26T12:17:37.599Z,6.80
2017-10-26T12:20:05.343Z,3.80
2017-10-26T12:22:31.979Z,6.10
2017-10-26T12:24:58.622Z,2.93
2017-10-26T12:27:25.272Z,4.50
2017-10-26T12:29:51.867Z,3.07
2017-10-26T12:32:18.486Z,6.60
2017-10-26T12:34:45.163Z,3.90
2017-10-26T12:37:11.867Z,3.50
2017-10-26T12:39:38.499Z,3.43
2017-10-26T12:42:05.187Z,3.20
2017-10-26T12:44:32.191Z,2.73
2017-10-26T12:46:58.824Z,3.67
2017-10-26T12:49:25.512Z,10.10
2017-10-26T12:51:52.172Z,2.20
2017-10-26T12:54:18.941Z,3.40
2017-10-26T12:56:45.738Z,2.10
2017-10-26T12:59:12.488Z,5.67
2017-10-26T13:01:39.212Z,3.27
2017-10-26T13:04:05.939Z,3.20
2017-10-26T13:06:32.764Z,4.50
2017-10-26T13:08:59.391Z,3.77
2017-10-26T13:11:26.620Z,5.73
2017-10-26T13:13:53.236Z,2.77
2017-10-26T13:16:19.940Z,3.33
2017-10-26T13:18:46.790Z,6.90
2017-10-26T13:21:13.516Z,5.43
2017-10-26T13:23:40.216Z,8.20
2017-10-26T13:26:06.903Z,8.67
2017-10-26T13:28:33.587Z,6.33
2017-10-26T13:31:00.586Z,3.97
2017-10-26T13:33:27.246Z,6.60
2017-10-26T13:35:54.214Z,6.23
2017-10-26T13:38:20.886Z,8.80
2017-10-26T13:40:47.712Z,14.83
2017-10-26T13:43:14.333Z,4.50
2017-10-26T13:45:41.057Z,4.90
2017-10-26T13:48:07.984Z,5.80
2017-10-26T13:50:34.991Z,6.83
2017-10-26T13:53:01.638Z,3.47
2017-10-26T13:55:28.784Z,6.00
2017-10-26T13:57:55.817Z,4.37
2017-10-26T14:00:22.441Z,4.53
2017-10-26T14:02:49.264Z,7.43
2017-10-26T14:05:16.294Z,4.57
2017-10-26T14:07:42.991Z,4.93
2017-10-26T14:10:09.844Z,17.40
2017-10-26T14:12:36.875Z,4.30
2017-10-26T14:15:03.601Z,4.67
2017-10-26T14:17:30.296Z,2.93
2017-10-26T14:19:56.919Z,9.43
2017-10-26T14:22:23.565Z,3.80
2017-10-26T14:24:50.391Z,3.20
2017-10-26T14:27:17.421Z,4.77
2017-10-26T14:29:44.338Z,7.77
2017-10-26T14:32:10.943Z,5.20
2017-10-26T14:34:37.501Z,8.90
2017-10-26T14:37:04.218Z,8.67
2017-10-26T14:39:31.285Z,6.67
2017-10-26T14:41:57.839Z,7.00
2017-10-26T14:44:24.391Z,6.90
2017-10-26T14:46:51.011Z,17.10
2017-10-26T14:49:17.627Z,9.13
2017-10-26T14:51:44.204Z,7.73
2017-10-26T14:54:10.826Z,6.50
2017-10-26T14:56:37.398Z,6.47
2017-10-26T14:59:04.059Z,7.53
2017-10-26T15:01:31.332Z,8.23
2017-10-26T15:03:57.939Z,12.67
2017-10-26T15:06:25.078Z,11.43
2017-10-26T15:08:53.235Z,10.03
2017-10-26T15:11:20.231Z,11.33
2017-10-26T15:13:46.884Z,27.27
2017-10-26T15:16:13.871Z,21.83
2017-10-26T15:18:40.422Z,13.57
2017-10-26T15:21:07.053Z,9.50
2017-10-26T15:23:33.851Z,9.27
2017-10-26T15:26:00.499Z,9.47
2017-10-26T15:28:27.505Z,10.90
2017-10-26T15:30:54.151Z,13.80
2017-10-26T15:33:21.181Z,12.37
2017-10-26T15:35:48.102Z,12.03
2017-10-26T15:38:14.808Z,16.87
2017-10-26T15:40:41.354Z,14.93
2017-10-26T15:43:09.031Z,15.83
2017-10-26T15:45:35.656Z,16.47
2017-10-26T15:48:02.391Z,18.00
2017-10-26T15:50:29.095Z,18.10
2017-10-26T15:52:55.834Z,15.70
2017-10-26T15:55:22.762Z,14.07
2017-10-26T15:57:49.794Z,19.20
2017-10-26T16:00:16.928Z,21.30
2017-10-26T16:02:43.959Z,14.10
2017-10-26T16:05:10.989Z,18.53
2017-10-26T16:07:37.714Z,13.97
2017-10-26T16:10:04.315Z,21.83
2017-10-26T16:12:30.962Z,22.73
2017-10-26T16:14:58.091Z,26.93
2017-10-26T16:17:25.027Z,13.83
2017-10-26T16:19:52.150Z,11.10
2017-10-26T16:22:19.136Z,11.03
2017-10-26T16:24:45.802Z,13.17
2017-10-26T16:27:12.935Z,19.40
2017-10-26T16:29:39.703Z,10.53
2017-10-26T16:32:06.281Z,12.73
2017-10-26T16:34:33.310Z,10.97
2017-10-26T16:37:00.315Z,11.87
2017-10-26T16:39:26.962Z,14.17
2017-10-26T16:41:53.993Z,19.00
2017-10-26T16:44:20.999Z,28.10
2017-10-26T16:46:47.620Z,18.53
2017-10-26T16:49:14.243Z,14.93
2017-10-26T16:51:40.937Z,21.90
2017-10-26T16:54:07.548Z,26.00
2017-10-26T16:56:34.109Z,23.47
2017-10-26T16:59:00.758Z,31.47
2017-10-26T17:01:27.682Z,25.63
2017-10-26T17:03:54.604Z,28.40
2017-10-26T17:06:21.215Z,26.37
2017-10-26T17:08:47.779Z,20.73
2017-10-26T17:11:14.333Z,25.80
2017-10-26T17:13:41.020Z,32.27
2017-10-26T17:16:07.594Z,28.10
2017-10-26T17:18:34.152Z,30.77
2017-10-26T17:21:00.777Z,21.63
2017-10-26T17:23:27.332Z,23.37
2017-10-26T17:25:53.890Z,32.77
2017-10-26T17:28:20.503Z,28.10
2017-10-26T17:30:47.056Z,35.13
2017-10-26T17:33:13.619Z,28.57
2017-10-26T17:35:40.253Z,29.77
2017-10-26T17:38:06.827Z,32.20
2017-10-26T17:40:33.491Z,29.90
2017-10-26T17:43:00.140Z,25.80
2017-10-26T17:45:26.699Z,30.30
2017-10-26T17:47:53.251Z,28.47
2017-10-26T17:50:19.851Z,28.50
2017-10-26T17:52:46.977Z,25.27
2017-10-26T17:55:13.956Z,33.23
2017-10-26T17:57:40.790Z,28.07
2017-10-26T18:00:07.399Z,31.90
2017-10-26T18:02:34.023Z,28.07
2017-10-26T18:05:03.742Z,35.40
2017-10-26T18:07:30.311Z,31.70
2017-10-26T18:09:56.966Z,28.60
2017-10-26T18:12:23.787Z,30.33
2017-10-26T18:14:50.508Z,26.30
2017-10-26T18:17:17.072Z,31.97
2017-10-26T18:19:43.695Z,33.40
2017-10-26T18:22:10.299Z,26.50
2017-10-26T18:24:36.875Z,24.33
2017-10-26T18:27:03.502Z,35.23
2017-10-26T18:29:30.100Z,34.63
2017-10-26T18:31:57.097Z,31.93
2017-10-26T18:34:23.920Z,37.23
2017-10-26T18:36:50.610Z,32.13
2017-10-26T18:39:17.324Z,31.33
2017-10-26T18:41:44.147Z,27.30
2017-10-26T18:44:10.869Z,33.20
2017-10-26T18:46:37.512Z,32.50
2017-10-26T18:49:04.264Z,34.83
2017-10-26T18:51:30.944Z,34.50
2017-10-26T18:53:57.657Z,31.93
2017-10-26T18:56:24.643Z,37.33
2017-10-26T18:58:51.751Z,33.90
2017-10-26T19:01:18.842Z,48.33
2017-10-26T19:03:45.695Z,45.77
2017-10-26T19:06:12.255Z,41.70
2017-10-26T19:08:38.819Z,33.60
2017-10-26T19:11:05.743Z,40.53
2017-10-26T19:13:32.399Z,47.00
2017-10-26T19:15:58.968Z,39.43
2017-10-26T19:18:25.953Z,37.57
2017-10-26T19:20:52.548Z,28.87
2017-10-26T19:23:19.119Z,28.97
2017-10-26T19:25:45.736Z,28.57
2017-10-26T19:28:12.300Z,34.73
2017-10-26T19:30:38.871Z,29.60
2017-10-26T19:33:05.551Z,26.10
2017-10-26T19:35:32.095Z,31.67
2017-10-26T19:37:58.676Z,27.83
2017-10-26T19:40:25.367Z,27.90
2017-10-26T19:42:51.920Z,28.40
2017-10-26T19:45:18.464Z,33.87
2017-10-26T19:47:45.072Z,25.90
2017-10-26T19:50:11.627Z,28.33
2017-10-26T19:52:38.219Z,28.27
2017-10-26T19:55:04.823Z,24.57
2017-10-26T19:57:34.483Z,26.77
2017-10-26T20:00:01.071Z,25.03
2017-10-26T20:02:27.715Z,25.23
2017-10-26T20:04:54.263Z,21.00
2017-10-26T20:07:21.191Z,22.50
2017-10-26T20:09:48.167Z,22.63
2017-10-26T20:12:14.804Z,25.97
2017-10-26T20:14:41.363Z,30.67
2017-10-26T20:17:08.355Z,28.30
2017-10-26T20:19:34.902Z,26.90
2017-10-26T20:22:01.460Z,22.03
2017-10-26T20:24:28.171Z,26.70
2017-10-26T20:26:54.728Z,22.40
2017-10-26T20:29:21.271Z,20.50
2017-10-26T20:31:47.971Z,23.57
2017-10-26T20:34:14.539Z,23.67
2017-10-26T20:36:41.139Z,21.13
2017-10-26T20:39:07.942Z,24.80
2017-10-26T20:41:34.502Z,28.97
2017-10-26T20:44:01.440Z,24.30
2017-10-26T20:46:28.047Z,25.03
2017-10-26T20:48:55.047Z,25.17
2017-10-26T20:54:43.924Z,25.27
2017-10-26T20:57:16.654Z,28.53
2017-10-26T20:59:49.124Z,27.67
2017-10-26T21:02:21.644Z,28.03
2017-10-26T21:07:54.575Z,20.80
2017-10-26T21:10:27.367Z,25.70
2017-10-26T21:13:00.028Z,24.63
2017-10-26T21:15:26.620Z,26.40
2017-10-26T21:17:53.543Z,32.20
2017-10-26T21:20:20.751Z,22.53
2017-10-26T21:22:47.304Z,22.47
2017-10-26T21:25:13.874Z,20.83
2017-10-26T21:27:40.507Z,20.80
2017-10-26T21:30:07.113Z,21.33
2017-10-26T21:32:33.675Z,26.90
2017-10-26T21:35:00.655Z,23.00
2017-10-26T21:37:27.202Z,17.00
2017-10-26T21:39:53.758Z,16.00
2017-10-26T21:42:20.816Z,19.90
2017-10-26T21:44:47.375Z,20.80
2017-10-26T21:47:13.930Z,20.97
2017-10-26T21:49:40.559Z,19.30
2017-10-26T21:52:07.235Z,23.50
2017-10-26T21:54:33.835Z,21.27
2017-10-26T21:57:00.464Z,21.80
2017-10-26T21:59:27.020Z,20.23
2017-10-26T22:01:53.950Z,24.47
2017-10-26T22:04:20.956Z,21.10
2017-10-26T22:06:47.511Z,22.90
2017-10-26T22:09:14.070Z,16.83
2017-10-26T22:11:40.684Z,29.40
2017-10-26T22:14:07.256Z,17.40
2017-10-26T22:16:34.188Z,20.37
2017-10-26T22:19:01.208Z,20.20
2017-10-26T22:21:27.779Z,19.13
2017-10-26T22:23:54.438Z,16.70
2017-10-26T22:26:21.078Z,18.60
2017-10-26T22:28:48.006Z,14.57
2017-10-26T22:31:14.931Z,10.73
2017-10-26T22:33:41.919Z,7.47
2017-10-26T22:36:08.483Z,11.50
2017-10-26T22:38:35.410Z,6.63
2017-10-26T22:41:02.087Z,9.60
2017-10-26T22:43:28.648Z,12.07
2017-10-26T22:45:55.203Z,5.97
2017-10-26T22:48:21.822Z,4.93
2017-10-26T22:50:48.375Z,5.00
2017-10-26T22:53:14.915Z,5.77
2017-10-26T22:55:41.565Z,4.70
2017-10-26T22:58:08.491Z,5.10
2017-10-26T23:00:35.427Z,7.73
2017-10-26T23:03:02.047Z,12.00
2017-10-26T23:05:28.598Z,7.07
2017-10-26T23:07:55.146Z,6.97
2017-10-26T23:10:21.777Z,4.90
2017-10-26T23:12:48.327Z,6.43
2017-10-26T23:15:14.904Z,11.90
2017-10-26T23:17:41.519Z,6.37
2017-10-26T23:20:08.096Z,4.50
2017-10-26T23:22:34.644Z,6.37
2017-10-26T23:25:01.268Z,7.07
2017-10-26T23:27:27.827Z,7.27
2017-10-26T23:29:54.380Z,4.13
2017-10-26T23:32:20.997Z,8.23
2017-10-26T23:34:47.571Z,7.17
2017-10-26T23:37:14.135Z,5.83
2017-10-26T23:39:40.975Z,5.60
2017-10-26T23:42:07.524Z,5.03
2017-10-26T23:44:34.076Z,6.50
2017-10-26T23:47:01.076Z,4.93
2017-10-26T23:49:27.626Z,7.03
2017-10-26T23:51:54.534Z,6.47
2017-10-26T23:54:21.227Z,6.47
2017-10-26T23:56:47.823Z,3.93
2017-10-26T23:59:14.383Z,4.37
